Bellshill, United Kingdom
Current Conditions -  °F | °C
As of 6:50 PM on Tuesday 27 Jan 2015 (Local Time) from EGPF Reporting Station
Light Rain Light Rain  
Wind Chill: 37°   Ceiling: 600
Heat Index: 45°   Visibility: 2mi
Dew Point: 43°   Wind: 17mph
Humidity: 93%   Direction: 230°SW
Pressure: 29.94"   Gusts: NA
Location:  55.82°N, 4.03°W
Report Text: EGPF 271850Z AUTO 23015KT 3300 -RA BKN006 OVC015 07/06 Q1014 RERA
Loading
Personal Weather Stations






























Interactive Weather Map New forecast layout! Learn more

10-Day Weather Forecast

Advertisements
Track Severe Weather on mobile